createdAt,value
2023-01-11T00:00:45.167Z,98899.59
2023-01-11T00:03:17.978Z,98908.22
2023-01-11T00:05:45.878Z,98908.34
2023-01-11T00:08:15.045Z,98901.59
2023-01-11T00:10:42.884Z,98903.59
2023-01-11T00:13:10.673Z,98905.47
2023-01-11T00:15:40.654Z,98899.81
2023-01-11T00:18:08.647Z,98899.09
2023-01-11T00:20:39.781Z,98898.69
2023-01-11T00:23:10.522Z,98891.16
2023-01-11T00:25:38.627Z,98872.53
2023-01-11T00:28:09.703Z,98884.75
2023-01-11T00:30:37.412Z,98874.41
2023-01-11T00:33:05.130Z,98870.81
2023-01-11T00:35:33.220Z,98870.94
2023-01-11T00:38:07.575Z,98873.16
2023-01-11T00:40:37.043Z,98865.47
2023-01-11T00:43:22.371Z,98866.50
2023-01-11T00:46:16.288Z,98849.75
2023-01-11T00:48:44.024Z,98849.09
2023-01-11T00:51:11.770Z,98853.19
2023-01-11T00:53:40.960Z,98851.72
2023-01-11T00:56:10.787Z,98857.78
2023-01-11T00:58:43.826Z,98846.44
2023-01-11T01:01:11.608Z,98847.84
2023-01-11T01:03:39.388Z,98837.22
2023-01-11T01:06:07.169Z,98829.88
2023-01-11T01:08:36.204Z,98831.03
2023-01-11T01:11:06.288Z,98827.53
2023-01-11T01:13:59.030Z,98827.81
2023-01-11T01:16:26.862Z,98831.16
2023-01-11T01:18:57.251Z,98825.28
2023-01-11T01:21:25.516Z,98832.75
2023-01-11T01:23:53.511Z,98826.81
2023-01-11T01:26:24.479Z,98832.28
2023-01-11T01:28:59.454Z,98835.56
2023-01-11T01:31:27.221Z,98830.88
2023-01-11T01:33:57.225Z,98834.84
2023-01-11T01:36:25.065Z,98824.09
2023-01-11T01:38:52.900Z,98829.56
2023-01-11T01:41:22.019Z,98829.13
2023-01-11T01:43:53.031Z,98820.06
2023-01-11T01:46:22.821Z,98824.94
2023-01-11T01:48:54.569Z,98818.13
2023-01-11T01:51:27.738Z,98816.19
2023-01-11T01:53:59.632Z,98816.19
2023-01-11T01:56:34.524Z,98807.69
2023-01-11T01:59:08.830Z,98809.59
2023-01-11T02:01:48.688Z,98813.13
2023-01-11T02:04:21.547Z,98811.66
2023-01-11T02:06:50.016Z,98796.38
2023-01-11T02:09:26.563Z,98808.72
2023-01-11T02:11:59.604Z,98800.09
2023-01-11T02:14:31.172Z,98790.69
2023-01-11T02:17:00.975Z,98780.53
2023-01-11T02:19:41.997Z,98784.69
2023-01-11T02:22:31.966Z,98780.31
2023-01-11T02:25:41.655Z,98769.13
2023-01-11T02:28:13.184Z,98769.53
2023-01-11T02:30:50.130Z,98771.94
2023-01-11T02:33:27.059Z,98772.59
2023-01-11T02:36:05.651Z,98778.09
2023-01-11T02:38:42.320Z,98773.88
2023-01-11T02:41:20.318Z,98775.56
2023-01-11T02:44:18.344Z,98773.94
2023-01-11T02:46:49.401Z,98781.13
2023-01-11T02:49:26.630Z,98773.88
2023-01-11T02:52:05.314Z,98779.88
2023-01-11T02:54:35.102Z,98768.63
2023-01-11T02:57:09.461Z,98761.06
2023-01-11T02:59:45.156Z,98761.75
2023-01-11T03:02:14.080Z,98761.81
2023-01-11T03:04:41.829Z,98758.09
2023-01-11T03:07:23.607Z,98761.16
2023-01-11T03:10:04.384Z,98750.84
2023-01-11T03:12:55.655Z,98750.84
2023-01-11T03:15:44.683Z,98753.19
2023-01-11T03:18:26.934Z,98737.16
2023-01-11T03:21:05.697Z,98743.06
2023-01-11T03:23:39.338Z,98753.53
2023-01-11T03:26:17.118Z,98751.97
2023-01-11T03:28:55.419Z,98752.22
2023-01-11T03:31:32.550Z,98742.06
2023-01-11T03:34:06.522Z,98743.47
2023-01-11T03:36:39.885Z,98748.97
2023-01-11T03:39:16.715Z,98738.91
2023-01-11T03:41:45.436Z,98737.09
2023-01-11T03:44:17.487Z,98743.50
2023-01-11T03:46:49.651Z,98735.22
2023-01-11T03:49:23.170Z,98740.50
2023-01-11T03:51:52.874Z,98737.25
2023-01-11T03:54:24.645Z,98729.34
2023-01-11T03:56:57.400Z,98741.50
2023-01-11T03:59:25.363Z,98734.63
2023-01-11T04:01:55.771Z,98723.34
2023-01-11T04:04:23.853Z,98717.94
2023-01-11T04:06:51.676Z,98708.59
2023-01-11T04:09:19.842Z,98713.63
2023-01-11T04:11:47.571Z,98712.38
2023-01-11T04:14:15.484Z,98716.13
2023-01-11T04:16:44.186Z,98704.25
2023-01-11T04:19:13.220Z,98709.16
2023-01-11T04:21:40.913Z,98698.19
2023-01-11T04:24:08.889Z,98696.34
2023-01-11T04:26:36.691Z,98697.19
2023-01-11T04:29:04.453Z,98692.69
2023-01-11T04:31:32.514Z,98682.84
2023-01-11T04:34:00.190Z,98687.75
2023-01-11T04:36:31.244Z,98684.16
2023-01-11T04:38:59.150Z,98686.88
2023-01-11T04:41:44.407Z,98679.69
2023-01-11T04:44:12.089Z,98675.34
2023-01-11T04:46:39.877Z,98677.28
2023-01-11T04:49:07.577Z,98673.25
2023-01-11T04:51:36.606Z,98679.22
2023-01-11T04:54:07.328Z,98675.56
2023-01-11T04:56:36.326Z,98669.19
2023-01-11T04:59:04.303Z,98680.25
2023-01-11T05:01:32.093Z,98679.53
2023-01-11T05:03:59.951Z,98678.44
2023-01-11T05:06:27.810Z,98682.66
2023-01-11T05:08:56.990Z,98677.78
2023-01-11T05:11:24.763Z,98678.75
2023-01-11T05:13:52.480Z,98678.09
2023-01-11T05:16:23.709Z,98678.78
2023-01-11T05:18:53.329Z,98665.03
2023-01-11T05:21:23.300Z,98667.66
2023-01-11T05:23:51.673Z,98656.59
2023-01-11T05:26:23.794Z,98665.63
2023-01-11T05:28:52.675Z,98672.84
2023-01-11T05:31:20.523Z,98668.38
2023-01-11T05:33:48.762Z,98660.38
2023-01-11T05:36:21.117Z,98662.44
2023-01-11T05:38:50.293Z,98660.63
2023-01-11T05:41:20.579Z,98668.41
2023-01-11T05:44:08.255Z,98654.22
2023-01-11T05:46:38.124Z,98651.34
2023-01-11T05:49:06.792Z,98646.78
2023-01-11T05:51:35.528Z,98642.19
2023-01-11T05:54:04.932Z,98647.63
2023-01-11T05:56:34.036Z,98648.97
2023-01-11T05:59:02.234Z,98640.03
2023-01-11T06:01:29.914Z,98639.94
2023-01-11T06:03:57.617Z,98637.22
2023-01-11T06:06:25.439Z,98636.06
2023-01-11T06:08:55.893Z,98632.59
2023-01-11T06:11:23.646Z,98619.72
2023-01-11T06:13:52.714Z,98608.09
2023-01-11T06:16:22.133Z,98616.19
2023-01-11T06:18:51.512Z,98619.84
2023-01-11T06:21:20.264Z,98609.69
2023-01-11T06:23:50.715Z,98605.53
2023-01-11T06:26:21.846Z,98605.09
2023-01-11T06:28:50.724Z,98614.44
2023-01-11T06:31:20.320Z,98623.34
2023-01-11T06:33:48.387Z,98611.72
2023-01-11T06:36:17.389Z,98609.09
2023-01-11T06:38:45.685Z,98613.78
2023-01-11T06:41:14.060Z,98620.03
2023-01-11T06:43:42.416Z,98612.88
2023-01-11T06:46:14.887Z,98625.88
2023-01-11T06:48:44.116Z,98637.59
2023-01-11T06:51:12.863Z,98626.78
2023-01-11T06:53:41.164Z,98625.88
2023-01-11T06:56:11.887Z,98620.75
2023-01-11T06:58:39.723Z,98626.88
2023-01-11T07:01:08.142Z,98618.88
2023-01-11T07:03:36.023Z,98616.25
2023-01-11T07:06:05.172Z,98618.91
2023-01-11T07:08:32.929Z,98600.34
2023-01-11T07:11:00.745Z,98607.44
2023-01-11T07:13:28.529Z,98603.34
2023-01-11T07:15:58.505Z,98590.59
2023-01-11T07:18:26.283Z,98585.38
2023-01-11T07:20:54.051Z,98598.38
2023-01-11T07:23:23.182Z,98591.97
2023-01-11T07:25:51.072Z,98594.31
2023-01-11T07:28:18.826Z,98588.56
2023-01-11T07:30:58.209Z,98580.84
2023-01-11T07:33:26.315Z,98591.75
2023-01-11T07:35:54.616Z,98596.81
2023-01-11T07:38:23.994Z,98597.38
2023-01-11T07:40:51.748Z,98598.19
2023-01-11T07:43:19.969Z,98595.66
2023-01-11T07:45:49.599Z,98595.78
2023-01-11T07:48:20.996Z,98587.84
2023-01-11T07:50:49.552Z,98591.50
2023-01-11T07:53:18.843Z,98600.38
2023-01-11T07:55:48.658Z,98590.44
2023-01-11T07:58:17.303Z,98591.84
2023-01-11T08:00:46.076Z,98584.78
2023-01-11T08:03:14.150Z,98588.41
2023-01-11T08:05:42.113Z,98589.53
2023-01-11T08:08:09.848Z,98587.00
2023-01-11T08:10:39.165Z,98581.41
2023-01-11T08:13:31.447Z,98576.72
2023-01-11T08:15:59.279Z,98576.72
2023-01-11T08:18:27.145Z,98583.63
2023-01-11T08:20:54.937Z,98585.56
2023-01-11T08:23:22.703Z,98588.41
2023-01-11T08:25:50.490Z,98575.91
2023-01-11T08:28:19.649Z,98580.81
2023-01-11T08:30:47.421Z,98579.22
2023-01-11T08:33:15.391Z,98573.44
2023-01-11T08:35:43.147Z,98562.63
2023-01-11T08:38:10.936Z,98565.28
2023-01-11T08:40:38.731Z,98571.59
2023-01-11T08:43:06.537Z,98575.75
2023-01-11T08:45:35.688Z,98570.06
2023-01-11T08:48:03.599Z,98572.66
2023-01-11T08:50:31.264Z,98580.00
2023-01-11T08:52:59.175Z,98574.66
2023-01-11T08:55:26.971Z,98578.13
2023-01-11T08:57:56.123Z,98576.47
2023-01-11T09:00:24.143Z,98573.16
2023-01-11T09:02:53.579Z,98579.28
2023-01-11T09:05:21.398Z,98573.13
2023-01-11T09:07:49.176Z,98578.03
2023-01-11T09:10:17.291Z,98582.41
2023-01-11T09:12:45.022Z,98579.78
2023-01-11T09:15:12.996Z,98580.59
2023-01-11T09:17:40.755Z,98572.25
2023-01-11T09:20:12.385Z,98577.59
2023-01-11T09:22:40.606Z,98589.38
2023-01-11T09:25:09.880Z,98586.09
2023-01-11T09:27:37.945Z,98576.94
2023-01-11T09:30:06.778Z,98588.91
2023-01-11T09:32:34.472Z,98579.75
2023-01-11T09:35:03.598Z,98582.75
2023-01-11T09:37:32.813Z,98585.63
2023-01-11T09:40:01.496Z,98579.31
2023-01-11T09:42:37.415Z,98581.03
2023-01-11T09:45:13.689Z,98587.34
2023-01-11T09:47:46.011Z,98574.03
2023-01-11T09:50:18.640Z,98577.06
2023-01-11T09:52:52.741Z,98577.44
2023-01-11T09:55:28.560Z,98568.97
2023-01-11T09:58:28.256Z,98577.78
2023-01-11T10:01:03.287Z,98570.47
2023-01-11T10:03:59.850Z,98572.13
2023-01-11T10:06:32.715Z,98582.06
2023-01-11T10:18:31.924Z,98567.06
2023-01-11T10:18:38.617Z,98575.63
2023-01-11T10:21:16.965Z,98567.66
2023-01-11T10:23:50.402Z,98564.97
2023-01-11T10:26:28.332Z,98561.81
2023-01-11T10:29:22.185Z,98557.50
2023-01-11T10:32:13.584Z,98572.69
2023-01-11T10:35:00.292Z,98571.56
2023-01-11T10:37:48.119Z,98574.97
2023-01-11T10:40:41.146Z,98595.63
2023-01-11T10:43:20.161Z,98590.09
2023-01-11T10:45:52.762Z,98585.69
2023-01-11T10:48:28.272Z,98590.16
2023-01-11T10:51:04.964Z,98588.72
2023-01-11T10:53:39.548Z,98585.69
2023-01-11T10:56:16.258Z,98578.59
2023-01-11T10:59:13.200Z,98592.31
2023-01-11T11:01:54.263Z,98590.22
2023-01-11T11:04:59.758Z,98585.94
2023-01-11T11:07:34.436Z,98587.63
2023-01-11T11:10:09.178Z,98585.41
2023-01-11T11:12:39.814Z,98586.13
2023-01-11T11:15:16.739Z,98577.50
2023-01-11T11:17:50.195Z,98577.00
2023-01-11T11:20:20.415Z,98571.13
2023-01-11T11:22:50.079Z,98574.06
2023-01-11T11:25:20.974Z,98570.53
2023-01-11T11:27:52.075Z,98580.63
2023-01-11T11:30:30.990Z,98573.59
2023-01-11T11:33:02.538Z,98570.41
2023-01-11T11:35:38.569Z,98574.94
2023-01-11T11:38:07.388Z,98568.53
2023-01-11T11:40:37.759Z,98570.09
2023-01-11T11:43:18.487Z,98558.81
2023-01-11T11:45:56.473Z,98569.13
2023-01-11T11:48:25.700Z,98568.53
2023-01-11T11:50:54.881Z,98568.91
2023-01-11T11:53:29.492Z,98573.44
2023-01-11T11:55:57.340Z,98566.94
2023-01-11T11:58:27.155Z,98570.16
2023-01-11T12:00:56.420Z,98573.31
2023-01-11T12:03:30.019Z,98564.00
2023-01-11T12:06:01.422Z,98558.41
2023-01-11T12:08:32.417Z,98559.03
2023-01-11T12:11:02.827Z,98556.81
2023-01-11T12:13:33.663Z,98556.81
2023-01-11T12:16:04.809Z,98555.31
2023-01-11T12:18:41.190Z,98564.56
2023-01-11T12:21:19.704Z,98560.97
2023-01-11T12:23:47.967Z,98571.22
2023-01-11T12:26:22.819Z,98578.69
2023-01-11T12:29:27.046Z,98567.84
2023-01-11T12:32:21.019Z,98578.06
2023-01-11T12:35:17.036Z,98568.28
2023-01-11T12:38:01.996Z,98584.34
2023-01-11T12:40:37.269Z,98585.47
2023-01-11T12:43:24.260Z,98590.28
2023-01-11T12:46:02.240Z,98581.31
2023-01-11T12:48:50.717Z,98591.47
2023-01-11T12:51:28.630Z,98582.41
2023-01-11T12:54:10.763Z,98588.97
2023-01-11T12:56:51.068Z,98588.94
2023-01-11T12:59:35.274Z,98589.13
2023-01-11T13:02:23.751Z,98594.63
2023-01-11T13:05:06.432Z,98606.44
2023-01-11T13:07:50.041Z,98603.75
2023-01-11T13:10:35.557Z,98604.38
2023-01-11T13:13:10.267Z,98601.81
2023-01-11T13:15:48.913Z,98607.38
2023-01-11T13:18:29.483Z,98610.06
2023-01-11T13:21:06.997Z,98601.56
2023-01-11T13:23:42.974Z,98606.06
2023-01-11T13:26:20.585Z,98616.25
2023-01-11T13:28:54.178Z,98633.53
2023-01-11T13:31:23.772Z,98617.16
2023-01-11T13:33:58.870Z,98619.97
2023-01-11T13:36:33.370Z,98623.66
2023-01-11T13:39:08.363Z,98633.06
2023-01-11T13:41:42.788Z,98650.94
2023-01-11T13:44:16.160Z,98659.25
2023-01-11T13:46:54.872Z,98644.13
2023-01-11T13:49:39.030Z,98646.66
2023-01-11T13:52:13.968Z,98641.97
2023-01-11T13:54:51.473Z,98651.47
2023-01-11T13:57:26.079Z,98670.72
2023-01-11T13:59:58.543Z,98679.50
2023-01-11T14:02:38.330Z,98670.16
2023-01-11T14:05:14.166Z,98677.41
2023-01-11T14:07:56.008Z,98687.84
2023-01-11T14:10:39.784Z,98685.66
2023-01-11T14:14:00.087Z,98686.22
2023-01-11T14:16:39.371Z,98696.88
2023-01-11T14:19:17.626Z,98698.78
2023-01-11T14:21:58.539Z,98687.34
2023-01-11T14:24:30.314Z,98689.59
2023-01-11T14:27:16.783Z,98698.84
2023-01-11T14:30:07.246Z,98706.81
2023-01-11T14:33:01.740Z,98714.47
2023-01-11T14:36:02.065Z,98713.50
2023-01-11T14:38:57.825Z,98720.94
2023-01-11T14:41:50.765Z,98721.16
2023-01-11T14:44:36.684Z,98720.38
2023-01-11T14:47:33.824Z,98730.97
2023-01-11T14:50:14.768Z,98718.66
2023-01-11T14:52:44.957Z,98733.28
2023-01-11T14:55:18.634Z,98742.66
2023-01-11T14:58:03.276Z,98738.19
2023-01-11T15:01:04.529Z,98740.50
2023-01-11T15:03:47.343Z,98744.94
2023-01-11T15:06:17.091Z,98749.91
2023-01-11T15:08:47.445Z,98746.78
2023-01-11T15:11:32.656Z,98752.41
2023-01-11T15:14:05.197Z,98751.63
2023-01-11T15:16:52.435Z,98762.41
2023-01-11T15:19:33.595Z,98752.22
2023-01-11T15:22:03.858Z,98757.22
2023-01-11T15:24:34.027Z,98766.19
2023-01-11T15:27:03.466Z,98781.03
2023-01-11T15:29:41.047Z,98774.84
2023-01-11T15:32:18.617Z,98774.41
2023-01-11T15:34:48.119Z,98766.63
2023-01-11T15:37:54.638Z,98765.69
2023-01-11T15:40:26.999Z,98775.53
2023-01-11T15:43:24.114Z,98775.28
2023-01-11T15:46:46.130Z,98794.63
2023-01-11T15:49:55.460Z,98804.25
2023-01-11T15:53:06.828Z,98811.22
2023-01-11T15:56:03.749Z,98808.69
2023-01-11T15:58:51.501Z,98819.91
2023-01-11T16:01:26.164Z,98819.69
2023-01-11T16:04:00.897Z,98825.84
2023-01-11T16:06:39.238Z,98817.06
2023-01-11T16:09:23.160Z,98837.97
2023-01-11T16:12:00.565Z,98853.41
2023-01-11T16:14:50.795Z,98864.38
2023-01-11T16:17:23.755Z,98865.66
2023-01-11T16:19:56.677Z,98874.34
2023-01-11T16:22:27.373Z,98873.44
2023-01-11T16:24:59.161Z,98883.03
2023-01-11T16:27:29.325Z,98890.25
2023-01-11T16:29:57.803Z,98889.53
2023-01-11T16:32:32.892Z,98894.25
2023-01-11T16:35:01.846Z,98896.44
2023-01-11T16:37:32.754Z,98904.78
2023-01-11T16:40:07.307Z,98916.06
2023-01-11T16:42:41.983Z,98917.81
2023-01-11T16:45:15.919Z,98916.22
2023-01-11T16:48:03.447Z,98917.22
2023-01-11T16:50:31.753Z,98918.91
2023-01-11T16:53:01.585Z,98935.88
2023-01-11T16:55:34.104Z,98945.00
2023-01-11T16:58:05.765Z,98943.75
2023-01-11T17:00:39.706Z,98949.66
2023-01-11T17:03:31.152Z,98943.97
2023-01-11T17:06:02.925Z,98945.19
2023-01-11T17:08:34.813Z,98941.00
2023-01-11T17:11:09.809Z,98941.97
2023-01-11T17:14:02.453Z,98955.75
2023-01-11T17:16:32.285Z,98954.69
2023-01-11T17:19:07.841Z,98963.25
2023-01-11T17:21:35.632Z,98984.03
2023-01-11T17:24:06.222Z,98983.72
2023-01-11T17:26:47.138Z,98985.50
2023-01-11T17:29:19.435Z,98985.63
2023-01-11T17:31:47.309Z,98990.63
2023-01-11T17:34:20.463Z,98998.63
2023-01-11T17:36:51.198Z,98992.97
2023-01-11T17:39:27.281Z,98994.41
2023-01-11T17:42:13.048Z,99008.16
2023-01-11T17:44:59.147Z,99018.09
2023-01-11T17:47:27.697Z,99012.50
2023-01-11T17:49:58.783Z,99019.91
2023-01-11T17:52:28.074Z,99024.00
2023-01-11T17:55:13.807Z,99027.19
2023-01-11T17:57:42.172Z,99035.13
2023-01-11T18:00:18.707Z,99033.72
2023-01-11T18:02:47.371Z,99025.97
2023-01-11T18:05:19.186Z,99032.56
2023-01-11T18:07:51.871Z,99044.47
2023-01-11T18:10:23.905Z,99044.66
2023-01-11T18:12:52.845Z,99038.69
2023-01-11T18:15:32.111Z,99040.16
2023-01-11T18:18:01.089Z,99034.31
2023-01-11T18:20:40.660Z,99040.97
2023-01-11T18:23:23.070Z,99038.56
2023-01-11T18:25:50.884Z,99042.59
2023-01-11T18:28:27.892Z,99043.22
2023-01-11T18:30:58.393Z,99053.91
2023-01-11T18:33:29.078Z,99049.06
2023-01-11T18:36:00.041Z,99043.78
2023-01-11T18:38:30.257Z,99042.50
2023-01-11T18:41:20.625Z,99055.84
2023-01-11T18:43:48.427Z,99049.41
2023-01-11T18:46:16.211Z,99057.63
2023-01-11T18:48:46.051Z,99060.34
2023-01-11T18:51:19.102Z,99062.78
2023-01-11T18:53:46.804Z,99065.81
2023-01-11T18:56:16.360Z,99070.03
2023-01-11T18:58:44.350Z,99076.47
2023-01-11T19:01:12.284Z,99081.13
2023-01-11T19:03:40.785Z,99070.03
2023-01-11T19:06:13.622Z,99071.94
2023-01-11T19:08:42.709Z,99080.81
2023-01-11T19:11:10.461Z,99081.28
2023-01-11T19:13:38.421Z,99087.88
2023-01-11T19:16:07.659Z,99082.56
2023-01-11T19:18:36.175Z,99089.13
2023-01-11T19:21:06.434Z,99089.31
2023-01-11T19:23:35.147Z,99087.38
2023-01-11T19:26:04.522Z,99095.25
2023-01-11T19:28:32.446Z,99100.91
2023-01-11T19:31:00.440Z,99110.09
2023-01-11T19:33:28.185Z,99094.47
2023-01-11T19:35:55.912Z,99107.50
2023-01-11T19:38:23.720Z,99108.78
2023-01-11T19:40:53.239Z,99112.31
2023-01-11T19:43:22.269Z,99104.44
2023-01-11T19:45:56.334Z,99102.00
2023-01-11T19:48:26.749Z,99098.47
2023-01-11T19:51:01.936Z,99083.00
2023-01-11T19:53:31.717Z,99089.13
2023-01-11T19:56:01.788Z,99093.69
2023-01-11T19:58:32.766Z,99082.22
2023-01-11T20:01:01.963Z,99082.88
2023-01-11T20:03:30.189Z,99079.84
2023-01-11T20:06:04.728Z,99082.25
2023-01-11T20:08:36.016Z,99072.94
2023-01-11T20:11:06.201Z,99080.31
2023-01-11T20:13:35.638Z,99070.81
2023-01-11T20:16:06.698Z,99073.56
2023-01-11T20:18:35.003Z,99089.63
2023-01-11T20:21:03.052Z,99096.69
2023-01-11T20:23:31.348Z,99097.78
2023-01-11T20:26:00.055Z,99089.47
2023-01-11T20:28:30.325Z,99097.16
2023-01-11T20:31:02.110Z,99107.63
2023-01-11T20:33:30.306Z,99103.16
2023-01-11T20:35:58.016Z,99108.16
2023-01-11T20:38:25.875Z,99116.03
2023-01-11T20:40:54.284Z,99117.16
2023-01-11T20:43:21.968Z,99112.31
2023-01-11T20:45:56.629Z,99122.94
2023-01-11T20:48:25.800Z,99116.66
2023-01-11T20:50:53.515Z,99119.56
2023-01-11T20:53:21.323Z,99115.34
2023-01-11T20:55:49.026Z,99126.78
2023-01-11T20:58:16.874Z,99118.06
2023-01-11T21:00:44.636Z,99116.66
2023-01-11T21:03:12.913Z,99115.84
2023-01-11T21:05:41.957Z,99111.63
2023-01-11T21:08:09.794Z,99116.66
2023-01-11T21:10:37.744Z,99118.41
2023-01-11T21:13:06.786Z,99117.44
2023-01-11T21:15:34.675Z,99121.97
2023-01-11T21:18:02.575Z,99116.00
2023-01-11T21:20:30.477Z,99128.56
2023-01-11T21:22:59.936Z,99114.25
2023-01-11T21:25:27.690Z,99116.19
2023-01-11T21:27:55.807Z,99115.69
2023-01-11T21:30:23.557Z,99115.69
2023-01-11T21:32:51.380Z,99114.88
2023-01-11T21:35:19.335Z,99103.94
2023-01-11T21:37:47.119Z,99099.28
2023-01-11T21:40:16.460Z,99107.50
2023-01-11T21:42:44.454Z,99093.34
2023-01-11T21:45:12.487Z,99094.47
2023-01-11T21:47:40.426Z,99086.75
2023-01-11T21:50:09.618Z,99089.63
2023-01-11T21:52:37.531Z,99096.56
2023-01-11T21:55:05.712Z,99091.91
2023-01-11T21:57:34.790Z,99090.47
2023-01-11T22:00:02.475Z,99094.31
2023-01-11T22:02:40.233Z,99098.97
2023-01-11T22:05:09.351Z,99092.69
2023-01-11T22:07:38.173Z,99090.94
2023-01-11T22:10:06.512Z,99105.41
2023-01-11T22:12:35.916Z,99099.31
2023-01-11T22:15:03.939Z,99103.47
2023-01-11T22:17:31.607Z,99093.03
2023-01-11T22:19:59.327Z,99089.16
2023-01-11T22:22:28.180Z,99103.66
2023-01-11T22:24:55.909Z,99104.78
2023-01-11T22:27:23.782Z,99103.31
2023-01-11T22:29:54.706Z,99111.84
2023-01-11T22:32:22.395Z,99114.28
2023-01-11T22:34:50.111Z,99110.22
2023-01-11T22:37:17.886Z,99113.44
2023-01-11T22:39:45.587Z,99128.91
2023-01-11T22:42:13.327Z,99119.06
2023-01-11T22:44:41.011Z,99117.31
2023-01-11T22:47:10.083Z,99118.28
2023-01-11T22:49:37.921Z,99109.69
2023-01-11T22:52:06.648Z,99105.25
2023-01-11T22:54:34.417Z,99111.63
2023-01-11T22:57:02.141Z,99108.94
2023-01-11T22:59:29.863Z,99109.44
2023-01-11T23:01:57.626Z,99101.56
2023-01-11T23:04:26.740Z,99104.91
2023-01-11T23:06:54.446Z,99094.63
2023-01-11T23:09:22.251Z,99107.13
2023-01-11T23:12:07.645Z,99117.44
2023-01-11T23:14:35.415Z,99112.94
2023-01-11T23:17:05.863Z,99109.59
2023-01-11T23:19:35.837Z,99108.78
2023-01-11T23:22:03.565Z,99107.50
2023-01-11T23:24:31.776Z,99102.97
2023-01-11T23:26:59.828Z,99094.16
2023-01-11T23:29:27.795Z,99090.47
2023-01-11T23:31:55.655Z,99093.16
2023-01-11T23:34:24.045Z,99094.78
2023-01-11T23:36:53.143Z,99097.81
2023-01-11T23:39:21.219Z,99097.03
2023-01-11T23:42:06.488Z,99102.19
2023-01-11T23:44:34.327Z,99094.63
2023-01-11T23:47:20.089Z,99106.84
2023-01-11T23:49:52.626Z,99103.13
2023-01-11T23:52:24.150Z,99106.97
2023-01-11T23:54:52.382Z,99103.31
2023-01-11T23:57:21.660Z,99105.25
2023-01-11T23:59:49.860Z,99101.03
